Time;durP1;ratioP1;P1;durP2;ratioP2;P2;SDS_P1;SDS_P2;PMS_P1;PMS_P2;Temp;Humidity;BMP_temperature;BMP_pressure;BME280_temperature;BME280_humidity;BME280_pressure;Samples;Min_cycle;Max_cycle;Signal;HPM_P1;HPM_P2
2023/02/24 00:02:13;;;;;;;10.53;1.73;;;25.00;60.40;;;;;;5066020;28;20199;-69
2023/02/24 00:04:41;;;;;;;4.03;1.27;;;25.20;59.20;;;;;;5066437;28;20226;-69
2023/02/24 00:07:19;;;;;;;6.30;1.30;;;25.40;56.70;;;;;;5067580;28;20225;-69
2023/02/24 00:09:47;;;;;;;4.83;1.20;;;25.30;56.30;;;;;;5070232;28;20672;-70
2023/02/24 00:12:17;;;;;;;7.23;1.30;;;25.00;57.30;;;;;;5067518;28;20826;-68
2023/02/24 00:14:45;;;;;;;5.10;1.20;;;25.00;56.90;;;;;;5067776;28;20243;-69
2023/02/24 00:17:13;;;;;;;7.07;1.70;;;25.50;56.20;;;;;;5068176;28;20183;-69
2023/02/24 00:19:41;;;;;;;8.47;1.40;;;25.60;55.90;;;;;;5068256;28;20584;-68
2023/02/24 00:22:08;;;;;;;2.90;1.13;;;26.00;52.90;;;;;;5067491;28;20182;-69
2023/02/24 00:24:36;;;;;;;4.53;1.23;;;25.70;52.80;;;;;;5068897;28;20179;-69
2023/02/24 00:27:10;;;;;;;4.77;1.20;;;25.70;51.50;;;;;;5066036;28;20241;-68
2023/02/24 00:29:39;;;;;;;4.73;1.40;;;25.80;51.10;;;;;;5068138;28;20182;-68
2023/02/24 00:32:11;;;;;;;8.50;2.80;;;25.90;50.90;;;;;;5067271;28;20194;-70
2023/02/24 00:34:38;;;;;;;8.43;1.30;;;25.40;53.10;;;;;;5068428;28;20217;-68
2023/02/24 00:37:06;;;;;;;3.87;1.00;;;25.20;54.40;;;;;;5067352;28;20545;-69
2023/02/24 00:39:35;;;;;;;5.63;1.00;;;25.40;54.50;;;;;;5067755;28;20245;-69
2023/02/24 00:42:04;;;;;;;6.47;1.43;;;25.40;54.90;;;;;;5067304;28;20282;-69
2023/02/24 00:44:40;;;;;;;5.37;1.50;;;25.80;54.20;;;;;;5066682;28;20191;-68
2023/02/24 00:47:10;;;;;;;4.17;1.13;;;25.80;55.70;;;;;;5067601;28;20202;-69
2023/02/24 00:49:42;;;;;;;3.57;1.00;;;25.70;56.40;;;;;;5068136;28;20637;-68
2023/02/24 00:52:18;;;;;;;5.50;1.20;;;25.80;56.30;;;;;;5068743;28;20252;-68
2023/02/24 00:54:48;;;;;;;10.03;1.50;;;25.90;55.80;;;;;;5069401;28;20207;-70
2023/02/24 00:57:26;;;;;;;9.23;1.30;;;25.70;56.30;;;;;;5063776;28;20193;-69
2023/02/24 00:59:57;;;;;;;5.23;1.33;;;25.80;55.70;;;;;;5067316;28;20428;-69
2023/02/24 01:02:24;;;;;;;4.20;1.33;;;26.30;55.90;;;;;;5067362;28;20178;-68
2023/02/24 01:04:52;;;;;;;6.00;1.23;;;26.30;54.70;;;;;;5064713;28;20226;-69
2023/02/24 01:07:20;;;;;;;8.70;1.67;;;26.40;54.70;;;;;;5064640;28;20187;-70
2023/02/24 01:09:50;;;;;;;6.53;1.30;;;26.90;54.50;;;;;;5066278;28;20231;-70
2023/02/24 01:15:03;;;;;;;4.53;1.60;;;26.30;56.60;;;;;;5064217;28;20566;-69
2023/02/24 01:17:31;;;;;;;7.63;1.77;;;26.10;56.60;;;;;;5066943;28;20724;-68
2023/02/24 01:20:13;;;;;;;4.77;1.20;;;25.80;58.00;;;;;;5064185;28;20559;-69
2023/02/24 01:22:41;;;;;;;5.73;1.23;;;25.80;58.50;;;;;;5068311;28;20203;-69
2023/02/24 01:25:10;;;;;;;11.60;1.60;;;25.90;58.10;;;;;;5063846;28;20176;-69
2023/02/24 01:27:39;;;;;;;4.27;1.40;;;25.90;57.60;;;;;;5062338;28;20577;-69
2023/02/24 01:30:12;;;;;;;6.17;1.30;;;26.00;58.00;;;;;;5067973;28;20199;-69
2023/02/24 01:32:40;;;;;;;6.60;1.50;;;26.20;57.90;;;;;;5067273;28;20218;-70
2023/02/24 01:35:07;;;;;;;10.30;1.40;;;26.30;58.50;;;;;;5068095;28;20175;-68
2023/02/24 01:37:35;;;;;;;8.10;1.67;;;25.90;58.90;;;;;;5064127;28;20459;-71
2023/02/24 01:40:16;;;;;;;8.90;1.47;;;25.80;59.80;;;;;;5063570;28;20705;-71
2023/02/24 01:42:46;;;;;;;6.47;1.20;;;26.10;59.30;;;;;;5069943;28;20191;-70
2023/02/24 01:45:18;;;;;;;8.17;1.30;;;26.30;57.40;;;;;;5071237;28;20182;-70
2023/02/24 01:47:46;;;;;;;5.47;1.30;;;26.10;57.30;;;;;;5070015;28;20653;-71
2023/02/24 01:50:20;;;;;;;3.57;1.10;;;25.90;58.10;;;;;;5069237;28;20293;-72
2023/02/24 01:52:50;;;;;;;3.83;1.10;;;25.70;57.60;;;;;;5069559;28;20168;-71
2023/02/24 01:55:30;;;;;;;4.53;0.97;;;25.60;58.60;;;;;;5070655;28;20221;-71
2023/02/24 01:58:00;;;;;;;8.13;1.50;;;25.60;58.80;;;;;;5063991;28;20262;-69
2023/02/24 02:00:37;;;;;;;4.97;1.93;;;25.30;59.90;;;;;;5070156;28;20237;-71
2023/02/24 02:03:35;;;;;;;7.40;2.00;;;25.40;59.70;;;;;;5069468;28;20186;-71
2023/02/24 02:06:10;;;;;;;5.50;1.30;;;25.80;59.40;;;;;;5068149;28;21441;-71
2023/02/24 02:08:40;;;;;;;5.00;1.23;;;25.80;59.10;;;;;;5064043;28;20183;-71
2023/02/24 02:11:11;;;;;;;6.37;1.27;;;25.80;58.10;;;;;;5070194;28;20604;-71
2023/02/24 02:13:44;;;;;;;4.33;1.43;;;25.80;57.80;;;;;;5068835;28;20232;-71
2023/02/24 02:16:40;;;;;;;4.67;1.30;;;26.10;57.00;;;;;;5070713;28;20187;-71
2023/02/24 02:19:34;;;;;;;9.87;1.70;;;26.30;55.80;;;;;;5068157;28;20191;-72
2023/02/24 02:22:22;;;;;;;5.23;1.30;;;26.60;53.30;;;;;;5068610;28;20195;-69
2023/02/24 02:25:06;;;;;;;7.00;1.30;;;26.40;52.50;;;;;;5067268;28;20207;-73
2023/02/24 02:27:38;;;;;;;3.50;1.10;;;26.80;51.10;;;;;;5065154;28;20218;-68
2023/02/24 02:30:30;;;;;;;7.93;1.37;;;27.10;50.60;;;;;;5069753;28;20309;-68
2023/02/24 02:33:20;;;;;;;4.90;1.10;;;27.00;50.60;;;;;;5068377;28;20275;-70
2023/02/24 02:36:12;;;;;;;3.17;1.10;;;26.70;49.80;;;;;;5064390;28;20203;-70
2023/02/24 02:39:16;;;;;;;4.60;1.10;;;26.60;50.50;;;;;;5065017;28;20171;-69
2023/02/24 02:42:23;;;;;;;5.37;1.40;;;26.80;50.60;;;;;;5064006;28;20280;-70
2023/02/24 02:45:19;;;;;;;2.80;1.00;;;26.50;50.20;;;;;;5066238;28;20183;-71
2023/02/24 02:47:52;;;;;;;6.90;1.57;;;26.50;51.60;;;;;;5063447;28;20587;-70
2023/02/24 02:50:47;;;;;;;5.57;1.10;;;26.40;50.70;;;;;;5066470;28;20285;-70
2023/02/24 02:53:29;;;;;;;4.33;1.20;;;26.70;50.00;;;;;;5065139;28;20179;-69
2023/02/24 02:56:02;;;;;;;4.87;1.17;;;26.90;48.60;;;;;;5066646;28;20214;-69
2023/02/24 02:58:38;;;;;;;2.67;1.03;;;26.80;48.20;;;;;;5066386;28;20254;-69
2023/02/24 03:01:07;;;;;;;5.63;1.50;;;26.80;47.80;;;;;;5063849;28;20187;-70
2023/02/24 03:03:46;;;;;;;4.17;1.20;;;27.00;48.30;;;;;;5062406;28;20183;-70
2023/02/24 03:06:21;;;;;;;4.43;0.80;;;26.60;47.70;;;;;;5064144;28;20187;-69
2023/02/24 03:08:57;;;;;;;7.23;1.10;;;26.20;50.00;;;;;;5061609;28;20168;-70
2023/02/24 03:11:25;;;;;;;6.80;1.23;;;26.60;49.30;;;;;;5062575;28;20225;-70
2023/02/24 03:13:56;;;;;;;6.90;1.80;;;26.80;48.80;;;;;;5063489;28;20582;-70
2023/02/24 03:16:25;;;;;;;7.77;1.80;;;27.30;49.50;;;;;;5065331;28;20175;-70
2023/02/24 03:19:15;;;;;;;7.80;1.20;;;27.60;48.80;;;;;;5064023;28;20189;-69
2023/02/24 03:21:57;;;;;;;5.17;1.30;;;28.30;46.00;;;;;;5063805;28;20187;-71
2023/02/24 03:24:26;;;;;;;2.30;1.00;;;28.60;44.50;;;;;;5064923;28;20266;-70
2023/02/24 03:27:10;;;;;;;3.87;1.27;;;28.50;44.20;;;;;;5064929;28;20214;-71
2023/02/24 03:29:47;;;;;;;2.27;0.80;;;28.20;44.40;;;;;;5055802;28;20190;-71
2023/02/24 03:32:24;;;;;;;6.30;1.37;;;28.00;43.50;;;;;;5065556;28;20240;-70
2023/02/24 03:34:58;;;;;;;4.40;0.97;;;28.00;45.10;;;;;;5060914;28;20183;-70
2023/02/24 03:37:28;;;;;;;6.47;1.10;;;28.60;44.60;;;;;;5063895;28;20179;-68
2023/02/24 03:40:13;;;;;;;6.40;0.83;;;27.80;45.50;;;;;;5060167;28;20244;-70
2023/02/24 03:43:04;;;;;;;3.40;1.00;;;28.20;44.80;;;;;;5064779;28;20194;-69
2023/02/24 03:45:40;;;;;;;4.47;1.10;;;28.10;46.20;;;;;;5064115;28;20187;-70
2023/02/24 03:48:10;;;;;;;4.17;1.10;;;28.20;44.20;;;;;;5065078;28;20234;-69
2023/02/24 03:50:40;;;;;;;4.33;0.90;;;28.00;46.00;;;;;;5066641;28;20207;-69
2023/02/24 03:53:35;;;;;;;3.70;1.43;;;28.30;45.20;;;;;;5063398;28;20209;-70
2023/02/24 03:56:23;;;;;;;8.07;1.17;;;28.80;44.80;;;;;;5062859;28;20215;-70
2023/02/24 03:59:37;;;;;;;3.10;1.03;;;28.90;43.80;;;;;;5064111;28;20193;-67
2023/02/24 04:02:27;;;;;;;5.37;1.03;;;29.00;44.00;;;;;;5053869;28;20188;-69
2023/02/24 04:05:15;;;;;;;4.90;1.02;;;29.20;44.00;;;;;;5062854;28;20250;-68
2023/02/24 04:07:51;;;;;;;5.53;1.15;;;29.10;43.30;;;;;;5061946;28;21116;-69
2023/02/24 04:10:36;;;;;;;2.22;0.93;;;29.20;43.80;;;;;;5061033;28;20304;-70
2023/02/24 04:13:17;;;;;;;5.20;1.10;;;29.20;43.70;;;;;;5065000;28;20248;-70
2023/02/24 04:15:55;;;;;;;2.90;1.23;;;29.10;44.20;;;;;;5063819;28;20600;-71
2023/02/24 04:18:31;;;;;;;4.87;1.33;;;28.50;45.50;;;;;;5063843;28;20199;-70
2023/02/24 04:21:02;;;;;;;5.43;1.13;;;28.50;46.90;;;;;;5063351;28;20183;-70
2023/02/24 04:23:42;;;;;;;5.47;1.10;;;28.50;46.80;;;;;;5066884;28;20191;-70
2023/02/24 04:26:11;;;;;;;5.32;1.40;;;28.80;45.70;;;;;;5068379;28;20175;-70
2023/02/24 04:28:40;;;;;;;4.57;1.13;;;29.30;46.20;;;;;;5068263;28;20183;-68
2023/02/24 04:31:16;;;;;;;6.72;1.15;;;29.20;45.80;;;;;;5065937;28;20604;-69
2023/02/24 04:33:49;;;;;;;5.00;1.20;;;29.30;44.80;;;;;;5063019;28;20179;-70
2023/02/24 04:36:17;;;;;;;3.20;1.10;;;29.00;45.70;;;;;;5064234;28;20211;-70
2023/02/24 04:38:45;;;;;;;2.50;1.02;;;29.20;46.30;;;;;;5068423;28;20180;-69
2023/02/24 04:41:19;;;;;;;4.65;0.90;;;30.00;44.20;;;;;;5067959;28;20187;-70
2023/02/24 04:43:50;;;;;;;2.67;0.82;;;30.10;43.00;;;;;;5062866;28;20191;-69
2023/02/24 04:46:19;;;;;;;4.60;1.00;;;29.80;43.40;;;;;;5066949;28;20907;-69
2023/02/24 04:48:46;;;;;;;4.97;0.90;;;29.30;44.80;;;;;;5070541;28;20168;-70
2023/02/24 04:51:13;;;;;;;6.50;1.17;;;29.20;45.90;;;;;;5066188;28;20300;-71
2023/02/24 04:53:41;;;;;;;3.08;1.15;;;29.40;45.70;;;;;;5064286;28;20560;-70
2023/02/24 04:56:08;;;;;;;5.18;1.10;;;29.60;46.00;;;;;;5062337;28;20191;-70
2023/02/24 04:58:37;;;;;;;3.42;0.93;;;29.90;44.40;;;;;;5062331;28;20191;-70
2023/02/24 05:01:10;;;;;;;6.28;1.20;;;29.20;44.80;;;;;;5058116;28;20496;-70
2023/02/24 05:03:41;;;;;;;5.68;1.05;;;29.40;46.30;;;;;;5065872;28;20186;-69
2023/02/24 05:06:13;;;;;;;5.65;1.27;;;29.60;46.00;;;;;;5067582;28;20203;-68
2023/02/24 05:08:40;;;;;;;7.63;1.27;;;29.20;49.60;;;;;;5062448;28;20183;-69
2023/02/24 05:11:17;;;;;;;3.00;1.00;;;29.80;48.90;;;;;;5062803;28;20447;-70
2023/02/24 05:13:45;;;;;;;5.85;1.02;;;28.60;50.80;;;;;;5064957;27;20236;-69
2023/02/24 05:16:14;;;;;;;6.28;1.20;;;28.40;50.80;;;;;;5065840;28;20362;-70
2023/02/24 05:18:43;;;;;;;3.78;1.08;;;29.10;50.00;;;;;;5067062;28;20247;-73
2023/02/24 05:24:05;;;;;;;4.57;1.10;;;28.70;50.20;;;;;;5066009;28;20199;-70
2023/02/24 05:26:34;;;;;;;7.55;1.35;;;28.20;50.70;;;;;;5067817;28;20676;-70
2023/02/24 05:29:05;;;;;;;5.63;1.00;;;28.20;51.40;;;;;;5064242;28;20325;-69
2023/02/24 05:31:33;;;;;;;5.60;1.00;;;28.70;50.40;;;;;;5064148;28;20215;-70
2023/02/24 05:34:04;;;;;;;3.95;1.00;;;28.60;49.80;;;;;;5068641;28;20630;-73
2023/02/24 05:36:39;;;;;;;5.35;1.30;;;29.60;47.70;;;;;;5064260;28;20191;-70
2023/02/24 05:39:09;;;;;;;4.97;0.98;;;29.70;46.60;;;;;;5067583;28;20672;-70
2023/02/24 05:41:40;;;;;;;1.73;0.80;;;29.90;46.50;;;;;;5065998;28;20639;-71
2023/02/24 05:44:14;;;;;;;3.63;0.98;;;30.00;45.80;;;;;;5066304;28;20260;-71
2023/02/24 05:46:45;;;;;;;2.50;0.93;;;29.90;46.40;;;;;;5061941;28;20554;-71
2023/02/24 05:49:25;;;;;;;5.05;0.80;;;29.50;47.30;;;;;;5060101;28;20264;-71
2023/02/24 05:51:56;;;;;;;3.30;1.00;;;28.90;47.60;;;;;;5063747;28;20313;-70
2023/02/24 05:54:29;;;;;;;3.83;0.93;;;29.10;47.60;;;;;;5066125;28;20695;-70
2023/02/24 05:57:02;;;;;;;5.60;1.10;;;29.00;48.10;;;;;;5061982;28;20643;-70
2023/02/24 05:59:33;;;;;;;5.13;1.10;;;28.20;49.30;;;;;;5063528;28;20714;-74
2023/02/24 06:02:07;;;;;;;3.60;0.70;;;28.70;47.90;;;;;;5060842;28;20656;-71
2023/02/24 06:04:57;;;;;;;2.67;0.90;;;28.00;49.20;;;;;;5064698;28;20249;-72
2023/02/24 06:07:26;;;;;;;4.13;0.90;;;28.40;48.10;;;;;;5067536;28;20199;-70
2023/02/24 06:09:57;;;;;;;4.50;1.10;;;29.60;46.10;;;;;;5067767;28;20194;-70
2023/02/24 06:12:29;;;;;;;2.92;0.88;;;29.70;45.00;;;;;;5097325;28;20266;-72
2023/02/24 06:14:57;;;;;;;5.68;1.10;;;29.40;45.10;;;;;;5062839;28;20187;-73
2023/02/24 06:17:24;;;;;;;4.28;0.88;;;29.00;45.90;;;;;;5061472;28;20274;-75
2023/02/24 06:19:53;;;;;;;3.83;1.13;;;28.50;45.90;;;;;;5063730;28;20186;-71
2023/02/24 06:22:22;;;;;;;6.33;1.50;;;28.30;47.10;;;;;;5064304;28;20195;-71
2023/02/24 06:24:52;;;;;;;4.67;1.30;;;27.60;48.60;;;;;;5064121;28;20190;-71
2023/02/24 06:27:23;;;;;;;6.83;1.10;;;27.60;48.90;;;;;;5064141;28;20188;-70
2023/02/24 06:29:52;;;;;;;5.07;1.10;;;27.70;49.20;;;;;;5068988;28;20592;-71
2023/02/24 06:32:22;;;;;;;5.00;1.10;;;27.50;50.00;;;;;;5066210;28;20712;-70
2023/02/24 06:34:50;;;;;;;3.80;0.90;;;27.30;50.40;;;;;;5070045;28;20190;-70
2023/02/24 06:37:18;;;;;;;3.83;1.00;;;27.00;51.90;;;;;;5071866;28;20195;-71
2023/02/24 06:39:46;;;;;;;6.30;1.00;;;27.20;51.30;;;;;;5070312;28;20175;-70
2023/02/24 06:42:14;;;;;;;4.93;1.80;;;27.30;51.30;;;;;;5071735;28;20191;-71
2023/02/24 06:44:41;;;;;;;4.90;1.10;;;27.30;51.20;;;;;;5070256;28;20592;-71
2023/02/24 06:47:12;;;;;;;6.30;1.23;;;26.80;51.90;;;;;;5066053;28;20670;-71
2023/02/24 06:49:40;;;;;;;5.77;1.43;;;26.70;51.70;;;;;;5069397;28;20237;-72
2023/02/24 06:52:09;;;;;;;6.83;1.17;;;26.50;51.90;;;;;;5063752;28;20554;-71
2023/02/24 06:54:37;;;;;;;3.43;1.10;;;26.50;52.60;;;;;;5065976;28;20179;-69
2023/02/24 06:57:04;;;;;;;5.83;1.30;;;26.70;52.40;;;;;;5062697;28;20584;-71
2023/02/24 06:59:31;;;;;;;6.77;1.30;;;26.70;52.60;;;;;;5070053;28;20210;-71
2023/02/24 07:02:03;;;;;;;4.93;1.00;;;26.20;53.20;;;;;;5069361;28;20246;-71
2023/02/24 07:04:38;;;;;;;7.27;1.30;;;27.10;51.10;;;;;;5066484;28;20268;-71
2023/02/24 07:07:07;;;;;;;4.50;1.57;;;27.30;50.70;;;;;;5068072;28;20195;-71
2023/02/24 07:09:35;;;;;;;3.90;1.40;;;27.60;50.10;;;;;;5064662;28;20179;-71
2023/02/24 07:12:03;;;;;;;7.00;1.67;;;27.70;48.30;;;;;;5071312;28;20195;-71
2023/02/24 07:14:30;;;;;;;2.93;1.20;;;27.80;47.00;;;;;;5070362;28;20224;-71
2023/02/24 07:16:58;;;;;;;3.60;0.90;;;27.70;47.10;;;;;;5071396;28;20183;-71
2023/02/24 07:19:28;;;;;;;3.40;1.27;;;27.50;47.70;;;;;;5069555;28;20184;-71
2023/02/24 07:22:02;;;;;;;5.37;2.07;;;27.80;47.20;;;;;;5065978;28;20183;-72
2023/02/24 07:24:32;;;;;;;3.57;0.93;;;28.30;45.90;;;;;;5064968;28;20180;-72
2023/02/24 07:27:02;;;;;;;3.23;1.00;;;28.20;46.30;;;;;;5070189;28;20608;-71
2023/02/24 07:29:31;;;;;;;3.37;1.00;;;28.20;46.40;;;;;;5064800;28;20205;-71
2023/02/24 07:32:02;;;;;;;3.83;0.93;;;27.70;46.80;;;;;;5065514;28;20222;-71
2023/02/24 07:34:32;;;;;;;4.43;1.10;;;27.60;47.80;;;;;;5064528;28;20179;-71
2023/02/24 07:37:06;;;;;;;2.30;0.80;;;28.00;46.40;;;;;;5062931;28;20183;-71
2023/02/24 07:39:35;;;;;;;2.27;0.90;;;27.90;46.50;;;;;;5065240;28;20178;-71
2023/02/24 07:42:03;;;;;;;4.53;1.20;;;28.60;44.90;;;;;;5068880;28;20237;-71
2023/02/24 07:44:31;;;;;;;1.97;0.90;;;27.80;46.30;;;;;;5068557;28;20186;-71
2023/02/24 07:46:59;;;;;;;5.57;1.30;;;27.40;46.10;;;;;;5061470;28;20222;-71
2023/02/24 07:49:28;;;;;;;3.83;1.17;;;27.30;47.00;;;;;;5064952;28;20638;-72
2023/02/24 07:51:56;;;;;;;3.93;1.00;;;27.40;47.00;;;;;;5070325;28;20257;-72
2023/02/24 07:54:28;;;;;;;3.27;1.30;;;27.20;47.50;;;;;;5073420;28;20187;-71
2023/02/24 07:56:57;;;;;;;3.17;1.10;;;26.80;51.60;;;;;;5074313;28;20191;-71
2023/02/24 07:59:31;;;;;;;3.53;1.10;;;26.40;53.80;;;;;;5074407;28;20714;-70
2023/02/24 08:01:59;;;;;;;6.60;1.50;;;25.80;56.10;;;;;;5065255;28;20540;-71
2023/02/24 08:04:31;;;;;;;3.27;1.07;;;25.50;57.50;;;;;;5068696;28;20226;-71
2023/02/24 08:07:01;;;;;;;1.23;0.73;;;24.80;58.60;;;;;;5072245;28;20214;-70
2023/02/24 08:12:20;;;;;;;4.80;1.23;;;24.20;60.00;;;;;;5071360;28;20201;-72
2023/02/24 08:14:50;;;;;;;3.13;1.10;;;23.90;60.50;;;;;;5074400;28;20175;-69
2023/02/24 08:17:25;;;;;;;2.60;0.80;;;23.70;61.00;;;;;;5072202;28;20622;-71
2023/02/24 08:20:20;;;;;;;5.10;1.10;;;23.60;61.00;;;;;;5073033;28;20174;-71
2023/02/24 08:22:45;;;;;;;5.77;1.10;;;23.60;61.30;;;;;;5068418;28;20206;-71
2023/02/24 08:25:17;;;;;;;3.67;1.30;;;23.50;61.30;;;;;;5073190;28;20183;-70
2023/02/24 08:27:54;;;;;;;3.47;1.27;;;23.50;61.20;;;;;;5069101;28;20282;-70
2023/02/24 08:30:28;;;;;;;4.23;1.33;;;23.40;61.30;;;;;;5072791;28;20207;-70
2023/02/24 08:32:57;;;;;;;5.77;1.53;;;23.30;60.90;;;;;;5070883;28;20207;-70
2023/02/24 08:35:34;;;;;;;5.50;1.03;;;23.30;61.50;;;;;;5067303;28;20669;-71
2023/02/24 08:38:06;;;;;;;3.20;1.20;;;23.20;61.70;;;;;;5066812;28;20210;-70
2023/02/24 08:40:49;;;;;;;3.70;1.00;;;23.20;62.40;;;;;;5068805;28;20258;-70
2023/02/24 08:45:59;;;;;;;7.83;2.63;;;23.20;63.00;;;;;;5067010;28;20649;-70
2023/02/24 08:48:35;;;;;;;4.33;1.40;;;23.10;63.50;;;;;;5068527;28;20283;-70
2023/02/24 08:51:27;;;;;;;5.40;1.00;;;23.00;64.30;;;;;;5072466;28;20676;-71
2023/02/24 08:54:03;;;;;;;5.70;1.10;;;23.00;64.80;;;;;;5069725;28;20535;-70
2023/02/24 08:56:35;;;;;;;3.97;1.00;;;22.90;65.20;;;;;;5065999;28;20257;-71
2023/02/24 08:59:05;;;;;;;6.77;1.23;;;22.90;65.60;;;;;;5065051;28;20576;-71
2023/02/24 09:01:37;;;;;;;3.53;0.90;;;22.80;66.70;;;;;;5069009;28;20217;-71
2023/02/24 09:04:08;;;;;;;4.90;0.90;;;22.80;67.60;;;;;;5058384;28;20228;-71
2023/02/24 09:06:39;;;;;;;4.53;0.90;;;22.70;69.30;;;;;;5070799;28;20179;-72
2023/02/24 09:09:16;;;;;;;4.73;1.00;;;22.60;70.20;;;;;;5070919;28;20186;-71
2023/02/24 09:12:01;;;;;;;3.17;1.20;;;22.60;70.70;;;;;;5072597;28;20218;-70
2023/02/24 09:14:41;;;;;;;4.20;1.20;;;22.50;71.70;;;;;;5068938;28;20262;-70
2023/02/24 09:17:13;;;;;;;7.73;0.90;;;22.50;72.40;;;;;;5070599;28;20179;-69
2023/02/24 09:22:31;;;;;;;5.13;1.50;;;22.30;73.10;;;;;;5072829;28;20184;-69
2023/02/24 09:25:17;;;;;;;7.63;1.73;;;22.40;73.50;;;;;;5061995;28;20589;-70
2023/02/24 09:28:06;;;;;;;5.43;1.77;;;22.40;73.50;;;;;;5060996;28;20179;-71
2023/02/24 09:30:36;;;;;;;5.60;1.33;;;22.30;73.50;;;;;;5069246;28;20336;-69
2023/02/24 09:33:17;;;;;;;5.20;1.40;;;22.30;73.80;;;;;;5073039;28;20642;-71
2023/02/24 09:36:43;;;;;;;9.10;1.47;;;22.30;73.40;;;;;;5071263;28;20328;-71
2023/02/24 09:44:26;;;;;;;6.03;1.10;;;22.20;73.70;;;;;;5071650;28;20179;-71
2023/02/24 09:47:07;;;;;;;5.67;1.20;;;22.20;73.80;;;;;;5070989;28;20222;-71
2023/02/24 09:49:57;;;;;;;4.87;1.10;;;22.30;73.70;;;;;;5069168;28;20186;-69
2023/02/24 09:53:12;;;;;;;6.50;1.30;;;22.20;73.80;;;;;;5070314;28;20183;-71
2023/02/24 09:55:24;;;;;;;7.27;1.20;;;22.20;73.70;;;;;;5073218;28;20195;-71
2023/02/24 09:58:38;;;;;;;9.63;1.27;;;22.20;73.70;;;;;;5069237;28;20199;-71
2023/02/24 10:01:41;;;;;;;3.67;1.20;;;22.10;73.80;;;;;;5058537;28;20587;-71
2023/02/24 10:04:39;;;;;;;6.90;1.40;;;22.20;73.90;;;;;;5071684;28;20230;-71
2023/02/24 10:07:39;;;;;;;5.10;1.23;;;22.10;73.80;;;;;;5071913;28;20179;-70
2023/02/24 10:10:34;;;;;;;8.67;1.40;;;22.10;73.70;;;;;;5070810;28;20207;-71
2023/02/24 10:13:31;;;;;;;5.37;1.30;;;22.10;73.90;;;;;;5068053;28;20587;-71
2023/02/24 10:16:07;;;;;;;5.20;1.23;;;22.10;73.80;;;;;;5067384;28;20237;-70
2023/02/24 10:19:13;;;;;;;4.00;1.00;;;22.10;73.80;;;;;;5071519;28;20260;-72
2023/02/24 10:22:03;;;;;;;7.10;1.37;;;22.00;73.80;;;;;;5067989;28;20175;-71
2023/02/24 10:25:00;;;;;;;9.23;1.40;;;22.10;73.60;;;;;;5070366;28;20314;-71
2023/02/24 10:27:56;;;;;;;5.93;1.40;;;22.10;73.60;;;;;;5066976;28;20880;-70
2023/02/24 10:30:41;;;;;;;6.83;1.30;;;22.10;73.80;;;;;;5069628;28;20240;-68
2023/02/24 10:33:24;;;;;;;5.37;1.20;;;22.10;73.50;;;;;;5062516;28;20585;-69
2023/02/24 10:36:07;;;;;;;3.73;1.20;;;22.00;73.90;;;;;;5070359;28;20171;-69
2023/02/24 10:38:37;;;;;;;8.40;1.47;;;22.00;73.80;;;;;;5064019;28;20556;-69
2023/02/24 10:41:05;;;;;;;4.47;1.10;;;21.90;74.00;;;;;;5058323;28;20184;-70
2023/02/24 10:43:44;;;;;;;3.57;1.40;;;21.90;74.00;;;;;;5068441;28;20212;-70
2023/02/24 10:46:34;;;;;;;6.00;1.13;;;21.90;74.00;;;;;;5067382;28;20270;-70
2023/02/24 10:49:08;;;;;;;6.40;1.53;;;21.90;74.00;;;;;;5068475;28;20572;-70
2023/02/24 10:51:41;;;;;;;7.57;1.20;;;21.80;74.10;;;;;;5069659;28;20211;-70
2023/02/24 10:55:04;;;;;;;7.20;1.17;;;21.80;74.30;;;;;;5069424;28;20683;-69
2023/02/24 10:57:35;;;;;;;7.47;1.00;;;21.80;74.10;;;;;;5065020;28;20186;-70
2023/02/24 11:03:13;;;;;;;8.60;1.60;;;21.90;74.30;;;;;;5067795;28;20253;-69
2023/02/24 11:06:29;;;;;;;7.10;1.40;;;21.80;74.40;;;;;;5067217;28;20230;-71
2023/02/24 11:08:43;;;;;;;6.90;1.40;;;21.80;74.50;;;;;;5068850;28;20237;-69
2023/02/24 11:11:32;;;;;;;6.70;1.23;;;21.80;74.60;;;;;;5066865;28;20215;-70
2023/02/24 11:19:49;;;;;;;3.13;1.13;;;21.80;75.00;;;;;;5068761;28;20237;-70
2023/02/24 11:22:23;;;;;;;3.47;1.23;;;21.80;75.00;;;;;;5071195;28;20189;-71
2023/02/24 11:24:51;;;;;;;4.10;1.23;;;21.80;75.10;;;;;;5064616;28;20183;-71
2023/02/24 11:27:25;;;;;;;3.53;1.13;;;21.80;75.10;;;;;;5067418;28;20341;-70
2023/02/24 11:30:15;;;;;;;4.27;1.20;;;21.80;75.20;;;;;;5069041;28;20186;-69
2023/02/24 11:33:23;;;;;;;6.83;1.40;;;21.80;75.10;;;;;;5070005;28;20711;-70
2023/02/24 11:36:03;;;;;;;2.87;1.30;;;21.70;75.00;;;;;;5023724;28;20180;-70
2023/02/24 11:39:00;;;;;;;4.43;1.10;;;21.80;75.00;;;;;;5027033;28;20197;-70
2023/02/24 11:41:54;;;;;;;5.37;1.17;;;21.80;75.10;;;;;;5058447;28;20198;-69
2023/02/24 11:44:36;;;;;;;4.67;1.00;;;21.80;75.10;;;;;;5070330;28;20527;-71
2023/02/24 11:47:08;;;;;;;5.17;1.23;;;21.80;75.10;;;;;;5064521;28;20178;-74
2023/02/24 11:49:54;;;;;;;4.50;1.03;;;21.80;75.00;;;;;;5065863;28;20199;-71
2023/02/24 11:52:38;;;;;;;7.40;1.50;;;21.90;74.70;;;;;;5062551;28;21269;-72
2023/02/24 11:55:13;;;;;;;10.80;1.40;;;21.90;74.60;;;;;;5067724;28;20272;-72
2023/02/24 11:57:49;;;;;;;5.00;1.20;;;21.90;74.70;;;;;;5075892;28;20205;-72
2023/02/24 12:00:24;;;;;;;8.27;1.30;;;21.90;74.70;;;;;;5070927;28;20202;-72
2023/02/24 12:03:11;;;;;;;5.23;1.23;;;21.80;74.70;;;;;;5071302;28;20187;-70
2023/02/24 12:05:48;;;;;;;5.50;1.07;;;21.80;74.50;;;;;;5069921;28;20215;-68
2023/02/24 12:08:30;;;;;;;4.67;1.33;;;21.80;74.30;;;;;;5068291;28;20194;-69
2023/02/24 12:11:40;;;;;;;6.90;1.43;;;21.70;74.30;;;;;;5065683;28;20648;-70
2023/02/24 12:14:17;;;;;;;7.10;1.23;;;21.70;74.30;;;;;;5032668;28;20651;-70
2023/02/24 12:16:48;;;;;;;8.37;1.30;;;21.60;74.30;;;;;;5065953;28;20600;-69
2023/02/24 12:19:32;;;;;;;9.33;1.30;;;21.60;74.00;;;;;;5068516;28;20195;-69
2023/02/24 12:22:08;;;;;;;4.00;0.90;;;21.70;73.80;;;;;;5066638;28;20193;-69
2023/02/24 12:24:37;;;;;;;7.87;1.20;;;21.70;73.50;;;;;;5068319;28;20179;-70
2023/02/24 12:27:12;;;;;;;5.07;1.03;;;21.70;73.30;;;;;;5070153;28;20191;-70
2023/02/24 12:30:21;;;;;;;5.47;1.10;;;21.80;73.60;;;;;;5068195;28;20175;-70
2023/02/24 12:33:31;;;;;;;6.77;1.57;;;21.80;73.60;;;;;;5068539;28;20187;-70
2023/02/24 12:36:18;;;;;;;4.67;1.47;;;21.80;73.70;;;;;;5068827;28;20710;-70
2023/02/24 12:38:55;;;;;;;4.50;1.37;;;21.80;73.80;;;;;;5069683;28;20328;-72
2023/02/24 12:41:43;;;;;;;4.23;1.20;;;21.70;74.00;;;;;;5073137;28;20190;-72
2023/02/24 12:44:32;;;;;;;4.30;1.03;;;21.70;74.00;;;;;;5071973;28;20524;-72
2023/02/24 12:47:22;;;;;;;6.80;1.30;;;21.70;74.20;;;;;;5069563;28;20188;-70
2023/02/24 12:50:10;;;;;;;5.97;1.00;;;21.60;74.30;;;;;;5066721;28;20179;-70
2023/02/24 12:52:49;;;;;;;4.27;1.20;;;21.50;74.80;;;;;;5073128;28;20203;-72
2023/02/24 12:55:32;;;;;;;4.20;1.17;;;21.40;75.20;;;;;;5072585;28;20664;-72
2023/02/24 12:58:12;;;;;;;6.10;1.00;;;21.30;75.40;;;;;;5069835;28;20646;-72
2023/02/24 13:00:58;;;;;;;4.60;1.03;;;21.30;75.70;;;;;;5069891;28;20184;-71
2023/02/24 13:03:43;;;;;;;4.63;1.00;;;21.20;76.20;;;;;;5070543;28;20179;-72
2023/02/24 13:06:48;;;;;;;6.53;1.07;;;21.20;76.50;;;;;;5074262;28;20595;-71
2023/02/24 13:09:48;;;;;;;7.20;1.10;;;21.00;76.90;;;;;;5053558;28;20203;-71
2023/02/24 13:12:34;;;;;;;6.93;1.10;;;21.10;77.30;;;;;;5069932;28;20284;-72
2023/02/24 13:15:05;;;;;;;6.90;1.00;;;21.00;77.10;;;;;;5073629;28;20601;-71
2023/02/24 13:17:32;;;;;;;4.97;0.90;;;20.90;77.30;;;;;;5070661;28;20182;-72
2023/02/24 13:20:13;;;;;;;6.27;1.43;;;20.80;77.40;;;;;;5069325;28;20667;-71
2023/02/24 13:22:43;;;;;;;4.33;1.20;;;20.80;77.90;;;;;;5071968;28;20207;-71
2023/02/24 13:25:31;;;;;;;5.53;1.20;;;20.80;78.00;;;;;;5071522;28;20535;-71
2023/02/24 13:28:04;;;;;;;4.47;0.90;;;20.80;78.30;;;;;;5065543;28;20729;-72
2023/02/24 13:30:36;;;;;;;4.30;0.90;;;20.70;78.80;;;;;;5071512;28;20215;-72
2023/02/24 13:33:19;;;;;;;7.50;1.30;;;20.70;78.60;;;;;;5069554;28;20515;-71
2023/02/24 13:35:49;;;;;;;4.30;0.80;;;20.60;79.00;;;;;;5066638;28;20183;-72
2023/02/24 13:38:30;;;;;;;5.10;1.13;;;20.70;79.20;;;;;;5069039;28;20187;-71
2023/02/24 13:41:19;;;;;;;5.60;1.10;;;20.70;79.20;;;;;;5066179;28;20187;-71
2023/02/24 13:44:28;;;;;;;3.87;1.27;;;20.70;79.50;;;;;;5068691;28;20177;-71
2023/02/24 13:47:28;;;;;;;5.67;1.20;;;20.70;79.30;;;;;;5065009;28;20211;-71
2023/02/24 13:50:26;;;;;;;2.17;0.90;;;20.80;79.40;;;;;;5066570;28;20816;-70
2023/02/24 13:52:54;;;;;;;2.90;1.20;;;20.80;79.50;;;;;;5069971;28;20179;-72
2023/02/24 13:55:28;;;;;;;4.80;1.17;;;20.90;79.10;;;;;;5062644;28;20181;-72
2023/02/24 13:58:14;;;;;;;4.67;1.10;;;20.80;78.90;;;;;;5068039;28;20650;-70
2023/02/24 14:00:56;;;;;;;4.83;1.00;;;20.90;79.00;;;;;;5069419;28;20180;-72
2023/02/24 14:03:28;;;;;;;3.87;1.40;;;20.90;78.70;;;;;;5072426;28;20198;-70
2023/02/24 14:05:58;;;;;;;6.50;1.17;;;20.80;78.80;;;;;;5068925;28;20205;-72